createdAt,value
2023-02-13T00:00:37.894Z,7.51
2023-02-13T00:01:40.656Z,7.46
2023-02-13T00:02:44.195Z,7.46
2023-02-13T00:03:46.794Z,7.45
2023-02-13T00:04:49.420Z,7.45
2023-02-13T00:05:51.953Z,7.44
2023-02-13T00:06:54.468Z,7.41
2023-02-13T00:07:57.416Z,7.40
2023-02-13T00:09:00.135Z,7.40
2023-02-13T00:10:02.645Z,7.36
2023-02-13T00:11:05.384Z,7.39
2023-02-13T00:12:08.756Z,7.38
2023-02-13T00:13:11.629Z,7.36
2023-02-13T00:14:14.391Z,7.42
2023-02-13T00:15:17.274Z,7.44
2023-02-13T00:16:20.038Z,7.44
2023-02-13T00:17:23.039Z,7.45
2023-02-13T00:18:27.003Z,7.43
2023-02-13T00:19:30.010Z,7.39
2023-02-13T00:20:33.121Z,7.39
2023-02-13T00:21:36.252Z,7.38
2023-02-13T00:22:39.725Z,7.36
2023-02-13T00:23:42.853Z,7.34
2023-02-13T00:24:45.981Z,7.33
2023-02-13T00:25:49.093Z,7.35
2023-02-13T00:26:52.212Z,7.33
2023-02-13T00:27:55.456Z,7.35
2023-02-13T00:28:58.576Z,7.36
2023-02-13T00:30:01.697Z,7.40
2023-02-13T00:31:07.986Z,7.39
2023-02-13T00:32:11.604Z,7.35
2023-02-13T00:33:15.141Z,7.36
2023-02-13T00:34:18.260Z,7.35
2023-02-13T00:35:21.387Z,7.35
2023-02-13T00:36:25.106Z,7.31
2023-02-13T00:37:28.225Z,7.30
2023-02-13T00:38:32.066Z,7.37
2023-02-13T00:39:35.197Z,7.38
2023-02-13T00:40:38.429Z,7.38
2023-02-13T00:41:43.230Z,7.36
2023-02-13T00:42:46.472Z,7.37
2023-02-13T00:43:50.314Z,7.39
2023-02-13T00:44:54.280Z,7.35
2023-02-13T00:45:59.225Z,7.32
2023-02-13T00:47:02.827Z,7.30
2023-02-13T00:48:06.161Z,7.30
2023-02-13T00:49:09.290Z,7.30
2023-02-13T00:50:12.646Z,7.30
2023-02-13T00:51:16.245Z,7.30
2023-02-13T00:52:19.248Z,7.29
2023-02-13T00:53:23.690Z,7.30
2023-02-13T00:54:26.455Z,7.31
2023-02-13T00:55:29.216Z,7.30
2023-02-13T00:56:31.974Z,7.30
2023-02-13T00:57:34.740Z,7.24
2023-02-13T00:58:37.826Z,7.36
2023-02-13T00:59:40.499Z,7.37
2023-02-13T01:00:43.628Z,7.39
2023-02-13T01:01:46.490Z,7.40
2023-02-13T01:02:50.046Z,7.42
2023-02-13T01:03:54.145Z,7.45
2023-02-13T01:04:57.070Z,7.42
2023-02-13T01:06:00.139Z,7.44
2023-02-13T01:07:02.608Z,7.39
2023-02-13T01:08:05.689Z,7.36
2023-02-13T01:09:09.438Z,7.36
2023-02-13T01:10:13.325Z,7.32
2023-02-13T01:11:15.848Z,7.31
2023-02-13T01:12:19.808Z,7.29
2023-02-13T01:13:22.408Z,7.41
2023-02-13T01:14:25.086Z,7.44
2023-02-13T01:15:27.612Z,7.41
2023-02-13T01:16:30.249Z,7.39
2023-02-13T01:17:32.981Z,7.37
2023-02-13T01:18:35.665Z,7.34
2023-02-13T01:19:38.171Z,7.31
2023-02-13T01:20:41.540Z,7.44
2023-02-13T01:21:44.436Z,7.38
2023-02-13T01:22:47.028Z,7.40
2023-02-13T01:23:49.935Z,7.40
2023-02-13T01:24:55.694Z,7.38
2023-02-13T01:25:58.223Z,7.35
2023-02-13T01:27:02.556Z,7.31
2023-02-13T01:28:05.180Z,7.29
2023-02-13T01:29:07.821Z,7.32
2023-02-13T01:30:15.022Z,7.37
2023-02-13T01:31:17.738Z,7.35
2023-02-13T01:32:21.003Z,7.33
2023-02-13T01:33:25.495Z,7.38
2023-02-13T01:34:28.104Z,7.29
2023-02-13T01:35:30.666Z,7.31
2023-02-13T01:36:33.148Z,7.28
2023-02-13T01:37:35.783Z,7.24
2023-02-13T01:38:38.669Z,7.25
2023-02-13T01:39:41.197Z,7.22
2023-02-13T01:40:52.355Z,7.25
2023-02-13T01:41:54.985Z,7.19
2023-02-13T01:42:58.346Z,7.21
2023-02-13T01:44:01.954Z,7.21
2023-02-13T01:45:18.623Z,7.26
2023-02-13T01:46:38.015Z,7.35
2023-02-13T01:47:48.164Z,7.34
2023-02-13T01:48:54.393Z,7.31
2023-02-13T01:50:07.843Z,7.30
2023-02-13T01:51:18.387Z,7.36
2023-02-13T01:52:21.876Z,7.33
2023-02-13T01:53:43.709Z,7.37
2023-02-13T01:54:47.312Z,7.29
2023-02-13T01:55:58.717Z,7.31
2023-02-13T01:57:10.355Z,7.27
2023-02-13T01:58:18.633Z,7.31
2023-02-13T01:59:30.040Z,7.32
2023-02-13T02:00:33.882Z,7.28
2023-02-13T02:01:37.424Z,7.28
2023-02-13T02:02:45.879Z,7.31
2023-02-13T02:04:13.122Z,7.35
2023-02-13T02:05:18.164Z,7.29
2023-02-13T02:06:31.847Z,7.29
2023-02-13T02:07:35.929Z,7.21
2023-02-13T02:08:42.192Z,7.18
2023-02-13T02:09:56.216Z,7.20
2023-02-13T02:11:11.816Z,7.19
2023-02-13T02:12:57.419Z,7.19
2023-02-13T02:14:01.742Z,7.21
2023-02-13T02:15:09.906Z,7.19
2023-02-13T02:16:13.455Z,7.16
2023-02-13T02:17:17.472Z,7.17
2023-02-13T02:18:25.284Z,7.20
2023-02-13T02:19:53.837Z,7.22
2023-02-13T02:21:32.479Z,7.19
2023-02-13T02:23:05.849Z,7.20
2023-02-13T02:24:42.580Z,7.20
2023-02-13T02:26:16.165Z,7.18
2023-02-13T02:27:38.488Z,7.12
2023-02-13T02:29:08.137Z,7.15
2023-02-13T02:31:10.795Z,7.21
2023-02-13T02:32:41.856Z,7.18
2023-02-13T02:34:20.623Z,7.21
2023-02-13T02:36:06.469Z,7.20
2023-02-13T02:37:19.193Z,7.20
2023-02-13T02:38:44.996Z,7.20
2023-02-13T02:40:10.552Z,7.20
2023-02-13T02:41:44.636Z,7.16
2023-02-13T02:43:23.039Z,7.13
2023-02-13T02:44:51.013Z,7.08
2023-02-13T02:46:03.482Z,7.04
2023-02-13T02:47:47.761Z,7.02
2023-02-13T02:49:16.321Z,7.00
2023-02-13T02:50:36.605Z,6.99
2023-02-13T02:51:43.685Z,6.97
2023-02-13T02:53:05.408Z,6.92
2023-02-13T02:54:38.651Z,6.94
2023-02-13T02:56:09.857Z,6.93
2023-02-13T02:57:20.893Z,6.90
2023-02-13T02:58:57.976Z,6.90
2023-02-13T03:00:21.735Z,6.83
2023-02-13T03:01:46.940Z,6.87
2023-02-13T03:03:08.302Z,6.88
2023-02-13T03:04:43.756Z,6.95
2023-02-13T03:06:07.116Z,6.92
2023-02-13T03:07:14.067Z,6.90
2023-02-13T03:08:37.726Z,6.88
2023-02-13T03:10:04.723Z,6.88
2023-02-13T03:11:26.198Z,6.86
2023-02-13T03:13:17.922Z,6.91
2023-02-13T03:14:21.096Z,6.87
2023-02-13T03:15:27.563Z,6.89
2023-02-13T03:16:49.243Z,6.86
2023-02-13T03:18:10.728Z,6.87
2023-02-13T03:19:41.371Z,6.95
2023-02-13T03:21:11.102Z,6.93
2023-02-13T03:23:02.974Z,6.91
2023-02-13T03:24:19.294Z,6.90
2023-02-13T03:25:35.608Z,6.87
2023-02-13T03:26:50.696Z,6.84
2023-02-13T03:28:30.586Z,6.85
2023-02-13T03:30:05.610Z,6.85
2023-02-13T03:31:29.328Z,6.86
2023-02-13T03:32:43.778Z,6.85
2023-02-13T03:34:10.869Z,6.84
2023-02-13T03:35:54.816Z,6.86
2023-02-13T03:37:26.263Z,6.87
2023-02-13T03:38:32.293Z,6.82
2023-02-13T03:39:56.860Z,6.85
2023-02-13T03:41:20.258Z,6.84
2023-02-13T03:42:43.180Z,6.85
2023-02-13T03:43:50.275Z,6.84
2023-02-13T03:45:18.949Z,6.86
2023-02-13T03:46:23.864Z,6.96
2023-02-13T03:47:26.680Z,6.95
2023-02-13T03:48:57.349Z,7.00
2023-02-13T03:50:05.939Z,6.91
2023-02-13T03:51:10.908Z,6.90
2023-02-13T03:52:19.187Z,6.94
2023-02-13T03:53:22.914Z,6.87
2023-02-13T03:54:51.828Z,6.85
2023-02-13T03:56:15.114Z,6.88
2023-02-13T03:57:39.832Z,6.93
2023-02-13T03:59:08.157Z,6.92
2023-02-13T04:00:14.039Z,6.92
2023-02-13T04:01:19.497Z,6.92
2023-02-13T04:02:29.676Z,6.89
2023-02-13T04:03:41.298Z,6.89
2023-02-13T04:05:15.042Z,6.87
2023-02-13T04:06:35.048Z,6.84
2023-02-13T04:07:37.565Z,6.81
2023-02-13T04:08:40.331Z,6.84
2023-02-13T04:09:43.451Z,6.83
2023-02-13T04:11:06.969Z,6.85
2023-02-13T04:12:19.093Z,6.82
2023-02-13T04:13:35.540Z,6.82
2023-02-13T04:14:48.622Z,6.82
2023-02-13T04:16:01.106Z,6.81
2023-02-13T04:17:07.342Z,6.80
2023-02-13T04:18:39.876Z,6.81
2023-02-13T04:19:42.630Z,6.74
2023-02-13T04:20:45.394Z,6.74
2023-02-13T04:21:55.948Z,6.77
2023-02-13T04:23:06.043Z,6.77
2023-02-13T04:24:10.110Z,6.75
2023-02-13T04:25:15.885Z,6.77
2023-02-13T04:26:22.242Z,6.77
2023-02-13T04:27:28.375Z,6.78
2023-02-13T04:28:31.648Z,6.74
2023-02-13T04:29:34.846Z,6.75
2023-02-13T04:30:38.191Z,6.75
2023-02-13T04:31:41.403Z,6.74
2023-02-13T04:32:44.696Z,6.73
2023-02-13T04:33:47.809Z,6.74
2023-02-13T04:34:51.050Z,6.77
2023-02-13T04:35:54.173Z,6.80
2023-02-13T04:36:57.293Z,6.81
2023-02-13T04:38:00.536Z,6.80
2023-02-13T04:39:03.658Z,6.83
2023-02-13T04:40:07.260Z,6.83
2023-02-13T04:41:10.507Z,6.83
2023-02-13T04:42:13.624Z,6.82
2023-02-13T04:43:16.751Z,6.80
2023-02-13T04:44:19.866Z,6.81
2023-02-13T04:45:23.109Z,6.79
2023-02-13T04:46:26.492Z,6.79
2023-02-13T04:47:29.712Z,6.77
2023-02-13T04:48:33.079Z,6.77
2023-02-13T04:49:36.325Z,6.77
2023-02-13T04:50:39.681Z,6.78
2023-02-13T04:51:42.808Z,6.75
2023-02-13T04:52:46.162Z,6.76
2023-02-13T04:53:49.405Z,6.75
2023-02-13T04:54:52.524Z,6.74
2023-02-13T04:55:55.890Z,6.75
2023-02-13T04:56:59.142Z,6.80
2023-02-13T04:58:02.249Z,6.81
2023-02-13T04:59:05.136Z,6.80
2023-02-13T05:00:09.342Z,6.81
2023-02-13T05:01:13.835Z,6.81
2023-02-13T05:02:16.776Z,6.76
2023-02-13T05:03:19.780Z,6.77
2023-02-13T05:04:22.584Z,6.76
2023-02-13T05:05:25.304Z,6.75
2023-02-13T05:06:27.946Z,6.74
2023-02-13T05:07:30.597Z,6.76
2023-02-13T05:08:34.066Z,6.77
2023-02-13T05:09:36.646Z,6.81
2023-02-13T05:10:39.590Z,6.82
2023-02-13T05:11:45.159Z,6.91
2023-02-13T05:12:48.521Z,6.88
2023-02-13T05:13:51.295Z,6.86
2023-02-13T05:14:53.800Z,6.84
2023-02-13T05:15:56.429Z,6.82
2023-02-13T05:16:58.963Z,6.82
2023-02-13T05:18:01.369Z,6.85
2023-02-13T05:19:04.329Z,6.85
2023-02-13T05:20:07.686Z,6.86
2023-02-13T05:21:28.807Z,6.83
2023-02-13T05:22:50.089Z,6.84
2023-02-13T05:23:52.613Z,6.83
2023-02-13T05:24:55.377Z,6.83
2023-02-13T05:25:57.980Z,6.82
2023-02-13T05:27:00.542Z,6.88
2023-02-13T05:28:03.660Z,6.90
2023-02-13T05:29:22.948Z,6.95
2023-02-13T05:30:25.863Z,7.02
2023-02-13T05:31:28.603Z,6.98
2023-02-13T05:32:31.225Z,6.95
2023-02-13T05:33:33.922Z,6.91
2023-02-13T05:34:36.515Z,6.89
2023-02-13T05:35:39.054Z,6.88
2023-02-13T05:36:41.700Z,6.87
2023-02-13T05:37:44.336Z,6.84
2023-02-13T05:38:46.985Z,6.89
2023-02-13T05:39:49.637Z,6.94
2023-02-13T05:40:52.151Z,6.90
2023-02-13T05:41:54.789Z,6.88
2023-02-13T05:42:57.423Z,6.87
2023-02-13T05:44:00.084Z,6.87
2023-02-13T05:45:02.600Z,6.90
2023-02-13T05:46:10.556Z,6.99
2023-02-13T05:47:13.272Z,6.97
2023-02-13T05:48:15.795Z,7.02
2023-02-13T05:49:18.309Z,7.07
2023-02-13T05:50:20.827Z,7.08
2023-02-13T05:51:23.350Z,7.10
2023-02-13T05:52:25.993Z,7.04
2023-02-13T05:53:29.918Z,7.03
2023-02-13T05:54:32.482Z,7.01
2023-02-13T05:55:35.113Z,7.01
2023-02-13T05:56:37.629Z,7.05
2023-02-13T05:57:40.271Z,7.05
2023-02-13T05:58:42.789Z,7.07
2023-02-13T05:59:45.433Z,7.13
2023-02-13T06:00:48.313Z,7.15
2023-02-13T06:01:50.841Z,7.12
2023-02-13T06:02:53.650Z,7.17
2023-02-13T06:03:58.530Z,7.23
2023-02-13T06:05:01.637Z,7.24
2023-02-13T06:06:04.281Z,7.22
2023-02-13T06:07:06.805Z,7.19
2023-02-13T06:08:09.324Z,7.23
2023-02-13T06:09:12.214Z,7.13
2023-02-13T06:10:14.726Z,7.10
2023-02-13T06:11:17.248Z,7.09
2023-02-13T06:12:19.792Z,7.09
2023-02-13T06:13:22.311Z,7.10
2023-02-13T06:14:24.947Z,7.06
2023-02-13T06:15:27.581Z,7.05
2023-02-13T06:16:31.415Z,7.07
2023-02-13T06:17:33.944Z,7.03
2023-02-13T06:18:37.189Z,7.03
2023-02-13T06:19:39.942Z,7.00
2023-02-13T06:20:42.823Z,7.04
2023-02-13T06:21:45.583Z,7.13
2023-02-13T06:22:49.906Z,7.06
2023-02-13T06:23:52.667Z,7.00
2023-02-13T06:24:55.676Z,7.00
2023-02-13T06:26:11.752Z,7.03
2023-02-13T06:27:14.879Z,6.99
2023-02-13T06:28:18.019Z,6.99
2023-02-13T06:29:21.121Z,7.05
2023-02-13T06:30:24.418Z,7.05
2023-02-13T06:31:27.905Z,7.05
2023-02-13T06:32:31.087Z,7.02
2023-02-13T06:33:34.205Z,7.01
2023-02-13T06:34:37.333Z,6.99
2023-02-13T06:35:40.569Z,6.97
2023-02-13T06:36:43.813Z,6.97
2023-02-13T06:37:46.930Z,7.03
2023-02-13T06:38:50.053Z,7.07
2023-02-13T06:39:53.175Z,7.05
2023-02-13T06:41:02.320Z,7.09
2023-02-13T06:42:05.540Z,7.05
2023-02-13T06:43:08.661Z,7.08
2023-02-13T06:44:11.782Z,7.04
2023-02-13T06:45:15.026Z,7.05
2023-02-13T06:46:18.177Z,7.05
2023-02-13T06:47:21.266Z,7.03
2023-02-13T06:48:24.510Z,7.03
2023-02-13T06:49:27.634Z,7.03
2023-02-13T06:50:30.634Z,7.02
2023-02-13T06:51:33.756Z,7.00
2023-02-13T06:52:36.876Z,6.99
2023-02-13T06:53:40.358Z,6.98
2023-02-13T06:54:47.795Z,6.99
2023-02-13T06:55:55.964Z,7.02
2023-02-13T06:56:59.330Z,6.97
2023-02-13T06:58:02.326Z,7.00
2023-02-13T06:59:05.686Z,7.01
2023-02-13T07:00:12.889Z,7.04
2023-02-13T07:01:16.084Z,7.05
2023-02-13T07:02:19.256Z,7.06
2023-02-13T07:03:22.137Z,7.06
2023-02-13T07:04:25.256Z,7.07
2023-02-13T07:05:28.260Z,7.05
2023-02-13T07:06:33.005Z,7.06
2023-02-13T07:07:38.220Z,7.05
2023-02-13T07:08:40.920Z,7.02
2023-02-13T07:09:43.628Z,7.01
2023-02-13T07:10:46.512Z,7.02
2023-02-13T07:11:50.694Z,7.05
2023-02-13T07:13:05.322Z,7.04
2023-02-13T07:14:08.518Z,7.05
2023-02-13T07:15:11.173Z,7.09
2023-02-13T07:16:14.229Z,7.09
2023-02-13T07:17:16.875Z,7.07
2023-02-13T07:18:19.516Z,7.04
2023-02-13T07:19:22.201Z,7.02
2023-02-13T07:20:26.245Z,7.03
2023-02-13T07:21:28.926Z,7.00
2023-02-13T07:22:34.566Z,7.03
2023-02-13T07:23:37.210Z,6.99
2023-02-13T07:24:40.090Z,7.00
2023-02-13T07:25:43.061Z,7.01
2023-02-13T07:26:45.983Z,7.00
2023-02-13T07:27:48.576Z,7.02
2023-02-13T07:28:56.950Z,7.03
2023-02-13T07:30:08.889Z,7.04
2023-02-13T07:31:11.989Z,7.02
2023-02-13T07:32:14.981Z,7.03
2023-02-13T07:33:17.772Z,7.06
2023-02-13T07:34:20.291Z,7.07
2023-02-13T07:35:22.906Z,7.04
2023-02-13T07:36:25.336Z,7.02
2023-02-13T07:37:29.455Z,7.04
2023-02-13T07:38:33.140Z,7.06
2023-02-13T07:39:39.012Z,7.09
2023-02-13T07:40:41.665Z,7.06
2023-02-13T07:41:44.299Z,7.04
2023-02-13T07:42:46.940Z,7.05
2023-02-13T07:43:49.940Z,7.05
2023-02-13T07:44:52.702Z,7.09
2023-02-13T07:45:59.316Z,7.19
2023-02-13T07:47:01.979Z,7.11
2023-02-13T07:48:04.469Z,7.13
2023-02-13T07:49:06.985Z,7.11
2023-02-13T07:50:10.594Z,7.11
2023-02-13T07:51:13.109Z,7.09
2023-02-13T07:52:15.629Z,7.07
2023-02-13T07:53:18.288Z,7.07
2023-02-13T07:54:20.791Z,7.06
2023-02-13T07:55:23.550Z,7.07
2023-02-13T07:56:26.076Z,7.06
2023-02-13T07:57:28.717Z,7.07
2023-02-13T07:58:31.236Z,7.07
2023-02-13T07:59:33.761Z,7.10
2023-02-13T08:00:36.275Z,7.11
2023-02-13T08:01:39.092Z,7.24
2023-02-13T08:02:41.680Z,7.24
2023-02-13T08:03:47.736Z,7.20
2023-02-13T08:04:50.333Z,7.19
2023-02-13T08:05:52.859Z,7.18
2023-02-13T08:06:55.484Z,7.12
2023-02-13T08:07:58.252Z,7.13
2023-02-13T08:09:19.489Z,7.15
2023-02-13T08:10:40.617Z,7.15
2023-02-13T08:11:55.488Z,7.16
2023-02-13T08:12:58.619Z,7.19
2023-02-13T08:14:01.136Z,7.19
2023-02-13T08:15:04.374Z,7.19
2023-02-13T08:16:07.089Z,7.26
2023-02-13T08:17:10.263Z,7.26
2023-02-13T08:18:13.017Z,7.26
2023-02-13T08:19:15.782Z,7.28
2023-02-13T08:20:18.442Z,7.27
2023-02-13T08:21:21.068Z,7.28
2023-02-13T08:22:23.709Z,7.30
2023-02-13T08:23:26.986Z,7.31
2023-02-13T08:24:29.827Z,7.32
2023-02-13T08:25:33.435Z,7.34
2023-02-13T08:26:36.548Z,7.36
2023-02-13T08:27:39.672Z,7.36
2023-02-13T08:28:42.708Z,7.38
2023-02-13T08:29:45.824Z,7.41
2023-02-13T08:30:49.038Z,7.44
2023-02-13T08:31:52.200Z,7.45
2023-02-13T08:32:55.759Z,7.44
2023-02-13T08:33:59.120Z,7.45
2023-02-13T08:35:02.242Z,7.44
2023-02-13T08:36:05.744Z,7.48
2023-02-13T08:37:08.875Z,7.48
2023-02-13T08:38:11.969Z,7.51
2023-02-13T08:39:15.089Z,7.51
2023-02-13T08:40:18.338Z,7.55
2023-02-13T08:41:22.654Z,7.57
2023-02-13T08:42:25.895Z,7.56
2023-02-13T08:43:29.018Z,7.59
2023-02-13T08:44:32.259Z,7.53
2023-02-13T08:45:36.532Z,7.57
2023-02-13T08:46:39.748Z,7.57
2023-02-13T08:47:42.944Z,7.56
2023-02-13T08:48:46.199Z,7.58
2023-02-13T08:49:49.306Z,7.59
2023-02-13T08:50:52.672Z,7.62
2023-02-13T08:51:55.912Z,7.74
2023-02-13T08:52:59.520Z,7.73
2023-02-13T08:54:03.008Z,7.71
2023-02-13T08:55:06.598Z,7.69
2023-02-13T08:56:10.444Z,7.67
2023-02-13T08:57:13.681Z,7.61
2023-02-13T08:58:16.927Z,7.63
2023-02-13T08:59:20.043Z,7.66
2023-02-13T09:00:23.412Z,7.66
2023-02-13T09:01:26.577Z,7.66
2023-02-13T09:02:29.806Z,7.66
2023-02-13T09:03:32.899Z,7.64
2023-02-13T09:04:35.655Z,7.69
2023-02-13T09:05:38.773Z,7.69
2023-02-13T09:06:41.895Z,7.72
2023-02-13T09:07:44.552Z,7.73
2023-02-13T09:08:47.301Z,7.76
2023-02-13T09:09:49.819Z,7.77
2023-02-13T09:11:01.588Z,7.88
2023-02-13T09:12:04.583Z,7.82
2023-02-13T09:13:07.467Z,7.83
2023-02-13T09:14:10.047Z,7.79
2023-02-13T09:15:12.749Z,7.83
2023-02-13T09:16:16.495Z,7.79
2023-02-13T09:17:19.879Z,7.82
2023-02-13T09:18:22.357Z,7.82
2023-02-13T09:19:24.996Z,7.82
2023-02-13T09:20:27.652Z,7.83
2023-02-13T09:21:31.416Z,7.87
2023-02-13T09:22:33.925Z,7.88
2023-02-13T09:23:38.981Z,7.93
2023-02-13T09:24:41.573Z,7.89
2023-02-13T09:25:44.129Z,7.93
2023-02-13T09:26:46.649Z,7.94
2023-02-13T09:27:49.182Z,7.99
2023-02-13T09:28:51.950Z,7.99
2023-02-13T09:29:54.461Z,7.94
2023-02-13T09:30:57.318Z,7.95
2023-02-13T09:32:00.228Z,8.00
2023-02-13T09:33:02.745Z,7.99
2023-02-13T09:34:05.514Z,8.05
2023-02-13T09:35:08.255Z,8.09
2023-02-13T09:36:14.779Z,8.12
2023-02-13T09:37:17.619Z,8.08
2023-02-13T09:38:20.137Z,8.03
2023-02-13T09:39:22.669Z,8.03
2023-02-13T09:40:35.741Z,8.04
2023-02-13T09:41:43.074Z,8.05
2023-02-13T09:42:47.004Z,8.11
2023-02-13T09:43:59.422Z,8.22
2023-02-13T09:45:05.264Z,8.20
2023-02-13T09:46:18.049Z,8.12
2023-02-13T09:47:39.743Z,8.17
2023-02-13T09:48:46.190Z,8.04
2023-02-13T09:49:53.873Z,8.06
2023-02-13T09:50:57.711Z,7.98
2023-02-13T09:52:01.072Z,7.91
2023-02-13T09:53:04.789Z,7.96
2023-02-13T09:54:09.125Z,7.98
2023-02-13T09:55:27.231Z,8.00
2023-02-13T09:57:05.541Z,8.11
2023-02-13T09:58:26.755Z,8.03
2023-02-13T09:59:37.431Z,8.11
2023-02-13T10:00:46.434Z,8.28
2023-02-13T10:01:52.728Z,8.34
2023-02-13T10:02:58.215Z,8.27
2023-02-13T10:04:32.024Z,8.28
2023-02-13T10:05:46.818Z,8.31
2023-02-13T10:06:59.880Z,8.18
2023-02-13T10:08:46.080Z,8.21
2023-02-13T10:10:20.996Z,8.28
2023-02-13T10:11:32.287Z,8.32
2023-02-13T10:12:52.932Z,8.36
2023-02-13T10:14:10.514Z,8.39
2023-02-13T10:15:18.852Z,8.40
2023-02-13T10:16:25.000Z,8.42
2023-02-13T10:17:34.696Z,8.43
2023-02-13T10:18:49.705Z,8.44
2023-02-13T10:19:58.579Z,8.42
2023-02-13T10:21:04.225Z,8.47
2023-02-13T10:22:40.580Z,8.54
2023-02-13T10:23:52.473Z,8.62
2023-02-13T10:25:04.589Z,8.64
2023-02-13T10:26:22.234Z,8.67
2023-02-13T10:27:33.277Z,8.59
2023-02-13T10:28:42.327Z,8.55
2023-02-13T10:30:12.887Z,8.67
2023-02-13T10:31:23.575Z,8.64
2023-02-13T10:32:36.762Z,8.64
2023-02-13T10:34:03.288Z,8.73
2023-02-13T10:35:30.773Z,8.72
2023-02-13T10:36:42.187Z,8.65
2023-02-13T10:37:51.409Z,8.68
2023-02-13T10:39:06.933Z,8.69
2023-02-13T10:40:12.413Z,8.66
2023-02-13T10:41:25.739Z,8.66
2023-02-13T10:42:56.577Z,8.61
2023-02-13T10:44:13.024Z,8.47
2023-02-13T10:45:43.262Z,8.58
2023-02-13T10:47:13.386Z,8.64
2023-02-13T10:48:29.947Z,8.62
2023-02-13T10:50:03.670Z,8.66
2023-02-13T10:51:13.753Z,8.58
2023-02-13T10:52:32.473Z,8.63
2023-02-13T10:53:45.195Z,8.56
2023-02-13T10:55:05.127Z,8.71
2023-02-13T10:56:24.326Z,8.73
2023-02-13T10:57:42.441Z,8.82
2023-02-13T10:59:07.048Z,8.92
2023-02-13T11:00:23.613Z,8.93
2023-02-13T11:01:49.953Z,8.87
2023-02-13T11:02:56.368Z,8.78
2023-02-13T11:04:12.632Z,8.92
2023-02-13T11:05:21.453Z,8.89
2023-02-13T11:06:24.573Z,8.94
2023-02-13T11:07:29.014Z,9.07
2023-02-13T11:08:44.257Z,9.22
2023-02-13T11:09:50.137Z,9.18
2023-02-13T11:10:53.501Z,9.22
2023-02-13T11:11:56.261Z,9.28
2023-02-13T11:13:16.063Z,9.34
2023-02-13T11:14:21.463Z,9.41
2023-02-13T11:15:33.278Z,9.36
2023-02-13T11:16:59.081Z,9.37
2023-02-13T11:18:22.435Z,9.34
2023-02-13T11:19:31.074Z,9.30
2023-02-13T11:20:38.398Z,9.20
2023-02-13T11:21:41.084Z,9.14
2023-02-13T11:22:43.844Z,9.10
2023-02-13T11:23:51.645Z,9.11
2023-02-13T11:24:58.841Z,9.24
2023-02-13T11:26:12.121Z,9.29
2023-02-13T11:27:14.928Z,9.23
2023-02-13T11:28:21.343Z,9.21
2023-02-13T11:29:29.166Z,9.25
2023-02-13T11:30:36.137Z,9.27
2023-02-13T11:31:38.798Z,9.33
2023-02-13T11:32:41.327Z,9.31
2023-02-13T11:33:43.966Z,9.33
2023-02-13T11:34:47.570Z,9.36
2023-02-13T11:35:50.207Z,9.39
2023-02-13T11:36:54.779Z,9.43
2023-02-13T11:38:24.315Z,9.53
2023-02-13T11:39:27.263Z,9.47
2023-02-13T11:40:31.860Z,9.52
2023-02-13T11:41:42.180Z,9.65
2023-02-13T11:42:47.819Z,9.69
2023-02-13T11:44:01.193Z,9.70
2023-02-13T11:45:23.709Z,9.66
2023-02-13T11:46:28.512Z,9.72
2023-02-13T11:47:32.936Z,9.78
2023-02-13T11:48:35.825Z,9.78
2023-02-13T11:49:39.605Z,9.79
2023-02-13T11:50:42.666Z,9.79
2023-02-13T11:51:51.427Z,9.88
2023-02-13T11:52:55.980Z,9.92
2023-02-13T11:54:01.268Z,9.94
2023-02-13T11:55:23.956Z,9.99
2023-02-13T11:56:26.464Z,9.99
2023-02-13T11:57:37.058Z,10.11
2023-02-13T11:58:40.894Z,10.10
2023-02-13T11:59:45.084Z,10.21
2023-02-13T12:00:47.711Z,10.26
2023-02-13T12:02:15.097Z,10.29
2023-02-13T12:03:20.482Z,10.29
2023-02-13T12:04:23.231Z,10.32
2023-02-13T12:05:27.915Z,10.32
2023-02-13T12:06:31.520Z,10.29
2023-02-13T12:07:34.276Z,10.17
2023-02-13T12:08:39.128Z,10.22
2023-02-13T12:09:44.239Z,10.05
2023-02-13T12:10:46.768Z,9.95
2023-02-13T12:11:53.613Z,9.96
2023-02-13T12:13:13.167Z,9.99
2023-02-13T12:14:29.490Z,9.94
2023-02-13T12:15:36.930Z,9.92
2023-02-13T12:16:45.529Z,9.87
2023-02-13T12:18:06.095Z,9.90
2023-02-13T12:19:15.816Z,9.92
2023-02-13T12:20:18.578Z,9.85
2023-02-13T12:21:26.860Z,9.87
2023-02-13T12:22:35.401Z,9.83
2023-02-13T12:23:49.788Z,9.88
2023-02-13T12:25:10.067Z,9.83
2023-02-13T12:26:31.791Z,9.76
2023-02-13T12:28:00.773Z,9.86
2023-02-13T12:29:33.625Z,9.93
2023-02-13T12:31:25.160Z,9.99
2023-02-13T12:33:00.961Z,9.98
2023-02-13T12:34:28.557Z,9.86
2023-02-13T12:36:00.000Z,9.76
2023-02-13T12:37:15.005Z,9.77
2023-02-13T12:38:50.165Z,9.86
2023-02-13T12:40:30.607Z,9.85
2023-02-13T12:42:03.493Z,9.92
2023-02-13T12:43:43.693Z,9.96
2023-02-13T12:45:09.859Z,10.09
2023-02-13T12:46:31.466Z,10.20
2023-02-13T12:48:02.666Z,10.22
2023-02-13T12:49:05.543Z,10.22
2023-02-13T12:50:39.027Z,10.16
2023-02-13T12:52:05.186Z,10.03
2023-02-13T12:53:29.713Z,10.02
2023-02-13T12:54:45.517Z,9.95
2023-02-13T12:56:10.360Z,9.97
2023-02-13T12:57:13.715Z,9.89
2023-02-13T12:58:23.204Z,9.93
2023-02-13T12:59:47.678Z,9.94
2023-02-13T13:01:15.328Z,9.99
2023-02-13T13:02:55.853Z,9.96
2023-02-13T13:04:27.172Z,9.94
2023-02-13T13:05:50.640Z,9.88
2023-02-13T13:07:06.417Z,9.82
2023-02-13T13:08:50.935Z,9.93
2023-02-13T13:10:36.058Z,9.97
2023-02-13T13:12:14.223Z,9.97
2023-02-13T13:13:43.030Z,9.93
2023-02-13T13:14:59.714Z,9.91
2023-02-13T13:16:27.804Z,9.87
2023-02-13T13:17:47.351Z,9.88
2023-02-13T13:19:15.725Z,9.84
2023-02-13T13:20:52.447Z,9.83
2023-02-13T13:22:12.681Z,9.86
2023-02-13T13:23:41.889Z,9.89
2023-02-13T13:25:15.489Z,10.04
2023-02-13T13:26:47.248Z,10.04
2023-02-13T13:28:12.940Z,9.98
2023-02-13T13:29:39.132Z,9.97
2023-02-13T13:30:43.448Z,9.91
2023-02-13T13:31:56.367Z,9.94
2023-02-13T13:33:26.062Z,10.02
2023-02-13T13:34:31.332Z,9.96
2023-02-13T13:35:36.132Z,9.96
2023-02-13T13:36:49.312Z,9.98
2023-02-13T13:38:04.093Z,9.91
2023-02-13T13:39:32.541Z,9.96
2023-02-13T13:40:42.975Z,9.97
2023-02-13T13:42:17.181Z,9.90
2023-02-13T13:43:34.101Z,9.91
2023-02-13T13:44:53.297Z,9.93
2023-02-13T13:46:44.786Z,9.98
2023-02-13T13:47:47.302Z,10.04
2023-02-13T13:49:25.121Z,10.04
2023-02-13T13:50:35.539Z,10.00
2023-02-13T13:51:38.555Z,9.93
2023-02-13T13:53:06.744Z,10.03
2023-02-13T13:54:09.143Z,10.01
2023-02-13T13:55:46.945Z,9.89
2023-02-13T13:57:02.238Z,9.79
2023-02-13T13:58:04.830Z,9.73
2023-02-13T13:59:17.785Z,9.78
2023-02-13T14:00:27.512Z,9.71
2023-02-13T14:01:31.664Z,9.65
2023-02-13T14:03:20.791Z,9.70
2023-02-13T14:04:32.453Z,9.71
2023-02-13T14:06:03.159Z,9.68
2023-02-13T14:07:05.568Z,9.60
2023-02-13T14:08:52.739Z,9.65
2023-02-13T14:09:55.242Z,9.60
2023-02-13T14:10:57.866Z,9.57
2023-02-13T14:12:29.439Z,9.62
2023-02-13T14:13:40.017Z,9.66
2023-02-13T14:14:46.006Z,9.62
2023-02-13T14:15:50.965Z,9.59
2023-02-13T14:16:55.125Z,9.57
2023-02-13T14:17:59.086Z,9.50
2023-02-13T14:19:01.985Z,9.47
2023-02-13T14:20:34.727Z,9.55
2023-02-13T14:21:37.370Z,9.47
2023-02-13T14:22:40.907Z,9.48
2023-02-13T14:23:45.668Z,9.55
2023-02-13T14:24:51.654Z,9.64
2023-02-13T14:26:16.155Z,9.61
2023-02-13T14:27:32.111Z,9.65
2023-02-13T14:28:34.981Z,9.57
2023-02-13T14:29:37.885Z,9.45
2023-02-13T14:30:40.759Z,9.41
2023-02-13T14:32:13.373Z,9.41
2023-02-13T14:33:31.988Z,9.44
2023-02-13T14:34:39.800Z,9.49
2023-02-13T14:35:42.816Z,9.42
2023-02-13T14:37:11.353Z,9.44
2023-02-13T14:38:25.881Z,9.48
2023-02-13T14:39:32.596Z,9.43
2023-02-13T14:40:52.281Z,9.46
2023-02-13T14:41:55.548Z,9.41
2023-02-13T14:43:00.322Z,9.52
2023-02-13T14:44:03.566Z,9.49
2023-02-13T14:45:17.259Z,9.45
2023-02-13T14:46:25.114Z,9.47
2023-02-13T14:47:36.571Z,9.52
2023-02-13T14:48:57.220Z,9.44
2023-02-13T14:50:04.061Z,9.42
2023-02-13T14:51:14.740Z,9.41
2023-02-13T14:52:27.943Z,9.45
2023-02-13T14:53:43.910Z,9.45
2023-02-13T14:54:51.477Z,9.49
2023-02-13T14:56:12.836Z,9.55
2023-02-13T14:57:18.712Z,9.56
2023-02-13T14:58:24.593Z,9.50
2023-02-13T14:59:35.635Z,9.45
2023-02-13T15:01:04.808Z,9.39
2023-02-13T15:02:22.084Z,9.45
2023-02-13T15:03:32.169Z,9.38
2023-02-13T15:04:43.249Z,9.30
2023-02-13T15:05:52.816Z,9.33
2023-02-13T15:06:59.416Z,9.28
2023-02-13T15:08:16.934Z,9.29
2023-02-13T15:09:41.188Z,9.34
2023-02-13T15:10:53.178Z,9.27
2023-02-13T15:11:55.945Z,9.26
2023-02-13T15:13:00.874Z,9.26
2023-02-13T15:14:36.986Z,9.35
2023-02-13T15:15:39.998Z,9.25
2023-02-13T15:16:43.228Z,9.31
2023-02-13T15:17:46.953Z,9.31
2023-02-13T15:18:56.189Z,9.33
2023-02-13T15:20:22.529Z,9.35
2023-02-13T15:21:33.090Z,9.32
2023-02-13T15:22:47.077Z,9.33
2023-02-13T15:23:57.157Z,9.31
2023-02-13T15:25:00.276Z,9.28
2023-02-13T15:26:07.493Z,9.27
2023-02-13T15:27:19.043Z,9.23
2023-02-13T15:28:23.731Z,9.21
2023-02-13T15:29:32.952Z,9.17
2023-02-13T15:30:40.764Z,9.19